Skagway, AK

11:35 PM AKST on February 06, 2016 (GMT -0900)
Skagway | | Change Station
CLOSE
Current Station
Airport
Location: Skagway,
Elevation: 16 ft
Nearby Weather Stations

Elev 16 ft 59.46 °N, 135.32 °W | Updated 42 minutes ago

Scattered Clouds
Scattered Clouds
39 °F
Feels Like 33 °F
N
9
Wind Variable Wind from SSW

Today
High -- | Low -- °F
--% Chance of Precip.
Yesterday
High -- | Low -- °F
Precip. -- in
Pressure 30.24 in
Visibility 10.0 miles
Clouds Scattered Clouds 6000 ft
Windchill 33 °F
Dew Point 32 °F
Humidity 76%
Rainfall 0.01 in
Snow Depth Not available.
8:00 AM 4:30 PM
Waning Crescent, 2% visible
METAR PAGY 070753Z AUTO 20008KT 10SM SCT060 04/00 A3024 RMK AO2 RAB09E19 SLP239 P0000 T00390000 TSNO
Pressure 30.24 in
Visibility 10.0 miles
Clouds Scattered Clouds 6000 ft
Windchill 33 °F
Dew Point 32 °F
Humidity 76%
Rainfall 0.01 in
Snow Depth Not available.
8:00 AM 4:30 PM
Waning Crescent, 2% visible
METAR PAGY 070753Z AUTO 20008KT 10SM SCT060 04/00 A3024 RMK AO2 RAB09E19 SLP239 P0000 T00390000 TSNO

10-Day Weather Forecast

Almanac

Astronomy

Feb. 06, 2016 Rise Set
Actual Time
Civil Twilight
Nautical Twilight
Astronomical Twilight
Moon
Length of Visible Light
Length of Day
Tomorrow will be .
, % of the Moon is Illuminated

Today's Extremes

State Highs State Lows

Community

WunderPhotos

Upload Photos

1,891,171 photos uploaded!

WunderBlog® & News

Nearby

Air Quality

  Air Quality AQ Index Pollutant
Not available.

Snow Depth

Station Depth Elevation

Earthquake Activity

City Distance Mag. Time & Date
Minimum magnitude displayed is 2.5.

Coastal Water Temperatures

Place Temperature

Stations

Nearby Weather Stations

Station Location Temp. Windchill Dew Point Humidity Wind Precip. Elev Updated Type
                   

Watches & Warnings

There are currently no watches in effect.